createdAt,value
2022-08-22T00:00:46.712Z,22.26
2022-08-22T00:02:49.565Z,24.32
2022-08-22T00:06:05.785Z,22.28
2022-08-22T00:11:16.802Z,22.17
2022-08-22T00:16:24.617Z,22.07
2022-08-22T00:21:31.090Z,22.11
2022-08-22T00:26:45.270Z,21.99
2022-08-22T00:31:51.937Z,21.98
2022-08-22T00:36:59.350Z,21.92
2022-08-22T00:42:29.507Z,21.76
2022-08-22T00:47:54.579Z,21.77
2022-08-22T00:53:16.134Z,21.65
2022-08-22T00:58:39.764Z,21.58
2022-08-22T01:04:14.202Z,21.55
2022-08-22T01:09:26.771Z,21.48
2022-08-22T01:14:40.254Z,21.46
2022-08-22T01:20:10.550Z,21.40
2022-08-22T01:25:34.564Z,21.22
2022-08-22T01:31:29.752Z,21.14
2022-08-22T01:37:17.093Z,20.89
2022-08-22T01:42:44.848Z,20.86
2022-08-22T01:47:54.329Z,20.88
2022-08-22T01:53:04.223Z,20.82
2022-08-22T01:58:16.845Z,20.82
2022-08-22T02:03:25.052Z,20.83
2022-08-22T02:08:43.258Z,20.76
2022-08-22T02:13:54.501Z,20.70
2022-08-22T02:19:10.810Z,20.67
2022-08-22T02:24:25.243Z,20.64
2022-08-22T02:29:33.914Z,20.66
2022-08-22T02:34:41.113Z,20.61
2022-08-22T02:39:51.805Z,20.53
2022-08-22T02:45:07.802Z,20.53
2022-08-22T02:50:19.011Z,20.39
2022-08-22T02:55:36.527Z,20.16
2022-08-22T03:00:47.171Z,20.26
2022-08-22T03:06:01.349Z,20.23
2022-08-22T03:11:15.226Z,20.23
2022-08-22T03:16:27.907Z,20.21
2022-08-22T03:21:35.879Z,20.11
2022-08-22T03:26:45.946Z,20.00
2022-08-22T03:32:13.435Z,19.89
2022-08-22T03:37:20.588Z,19.90
2022-08-22T03:43:05.767Z,19.87
2022-08-22T03:48:26.107Z,19.81
2022-08-22T03:53:54.891Z,19.82
2022-08-22T03:59:23.850Z,19.74
2022-08-22T04:04:48.195Z,19.67
2022-08-22T04:10:16.217Z,19.60
2022-08-22T04:15:33.522Z,19.63
2022-08-22T04:20:56.569Z,19.60
2022-08-22T04:26:08.257Z,19.66
2022-08-22T04:31:18.447Z,19.71
2022-08-22T04:36:27.674Z,19.64
2022-08-22T04:41:42.360Z,19.60
2022-08-22T04:46:48.295Z,19.69
2022-08-22T04:51:56.965Z,19.76
2022-08-22T04:57:12.155Z,19.93
2022-08-22T05:02:24.574Z,19.90
2022-08-22T05:07:36.236Z,20.13
2022-08-22T05:12:41.786Z,20.28
2022-08-22T05:17:46.898Z,20.41
2022-08-22T05:22:53.686Z,20.61
2022-08-22T05:28:08.350Z,20.70
2022-08-22T05:33:17.886Z,20.88
2022-08-22T05:38:25.008Z,21.08
2022-08-22T05:43:28.970Z,21.24
2022-08-22T05:48:38.281Z,21.43
2022-08-22T05:53:45.572Z,21.68
2022-08-22T05:58:53.051Z,21.83
2022-08-22T06:04:02.627Z,22.06
2022-08-22T06:09:09.895Z,22.35
2022-08-22T06:14:24.973Z,22.59
2022-08-22T06:19:28.962Z,22.78
2022-08-22T06:24:37.124Z,22.83
2022-08-22T06:29:46.561Z,23.19
2022-08-22T06:34:50.676Z,23.13
2022-08-22T06:39:56.180Z,23.49
2022-08-22T06:45:02.066Z,23.65
2022-08-22T06:50:13.537Z,23.78
2022-08-22T06:55:19.351Z,24.04
2022-08-22T07:00:23.524Z,24.14
2022-08-22T07:05:28.704Z,24.48
2022-08-22T07:10:33.615Z,24.67
2022-08-22T07:15:41.495Z,24.88
2022-08-22T07:20:49.417Z,25.22
2022-08-22T07:26:07.639Z,25.48
2022-08-22T07:31:16.596Z,25.78
2022-08-22T07:36:31.824Z,25.83
2022-08-22T07:41:44.267Z,26.15
2022-08-22T07:46:57.253Z,26.38
2022-08-22T07:52:04.807Z,26.55
2022-08-22T07:57:14.288Z,26.79
2022-08-22T08:02:19.710Z,26.92
2022-08-22T08:07:25.642Z,27.07
2022-08-22T08:12:33.006Z,27.24
2022-08-22T08:17:37.874Z,27.53
2022-08-22T08:22:43.598Z,27.84
2022-08-22T08:28:06.402Z,28.39
2022-08-22T08:33:25.808Z,28.66
2022-08-22T08:38:33.308Z,28.98
2022-08-22T08:43:44.949Z,29.09
2022-08-22T08:49:23.975Z,29.36
2022-08-22T08:54:43.982Z,29.85
2022-08-22T08:59:55.159Z,29.92
2022-08-22T09:05:55.991Z,29.98
2022-08-22T09:11:28.484Z,29.69
2022-08-22T09:16:50.065Z,30.74
2022-08-22T09:22:18.146Z,31.34
2022-08-22T09:27:31.302Z,30.95
2022-08-22T09:32:45.304Z,31.40
2022-08-22T09:38:00.629Z,32.06
2022-08-22T09:43:06.677Z,31.88
2022-08-22T09:48:30.679Z,32.55
2022-08-22T09:53:48.171Z,32.49
2022-08-22T09:59:01.375Z,33.10
2022-08-22T10:04:53.351Z,33.27
2022-08-22T10:10:05.554Z,33.57
2022-08-22T10:15:18.610Z,33.91
2022-08-22T10:20:28.170Z,33.82
2022-08-22T10:25:41.677Z,34.52
2022-08-22T10:30:57.207Z,34.22
2022-08-22T10:36:07.831Z,34.63
2022-08-22T10:41:26.798Z,34.94
2022-08-22T10:46:36.707Z,34.58
2022-08-22T10:51:47.430Z,35.40
2022-08-22T10:56:59.248Z,35.68
2022-08-22T11:02:15.205Z,35.85
2022-08-22T11:07:48.461Z,36.43
2022-08-22T11:13:05.778Z,36.79
2022-08-22T11:18:21.530Z,37.20
2022-08-22T11:23:37.450Z,37.01
2022-08-22T11:29:13.587Z,36.87
2022-08-22T11:34:26.547Z,37.43
2022-08-22T11:39:35.696Z,37.36
2022-08-22T11:44:50.942Z,37.62
2022-08-22T11:49:59.514Z,37.22
2022-08-22T11:55:11.357Z,36.77
2022-08-22T12:00:26.649Z,37.21
2022-08-22T12:05:33.577Z,37.83
2022-08-22T12:10:38.966Z,38.09
2022-08-22T12:15:49.034Z,37.70
2022-08-22T12:21:18.910Z,38.28
2022-08-22T12:26:31.135Z,38.74
2022-08-22T12:31:58.211Z,39.01
2022-08-22T12:37:09.350Z,39.29
2022-08-22T12:42:29.237Z,39.27
2022-08-22T12:47:46.051Z,37.32
2022-08-22T12:53:00.607Z,37.93
2022-08-22T12:58:11.532Z,38.97
2022-08-22T13:03:25.045Z,39.05
2022-08-22T13:08:30.855Z,38.24
2022-08-22T13:13:38.575Z,38.77
2022-08-22T13:18:53.714Z,39.37
2022-08-22T13:23:59.476Z,38.07
2022-08-22T13:29:24.693Z,38.56
2022-08-22T13:34:39.961Z,38.84
2022-08-22T13:39:49.184Z,39.39
2022-08-22T13:44:55.211Z,39.27
2022-08-22T13:50:08.229Z,39.18
2022-08-22T13:55:17.739Z,37.79
2022-08-22T14:01:06.923Z,39.04
2022-08-22T14:06:37.973Z,39.28
2022-08-22T14:11:45.311Z,39.45
2022-08-22T14:16:51.326Z,37.46
2022-08-22T14:21:59.183Z,39.54
2022-08-22T14:27:07.219Z,39.82
2022-08-22T14:32:35.064Z,40.17
2022-08-22T14:37:47.306Z,40.36
2022-08-22T14:42:55.516Z,39.87
2022-08-22T14:48:30.491Z,39.61
2022-08-22T14:53:30.504Z,39.66
2022-08-22T14:58:52.238Z,38.97
2022-08-22T15:04:00.922Z,38.22
2022-08-22T15:09:12.846Z,39.15
2022-08-22T15:14:24.218Z,38.36
2022-08-22T15:19:35.568Z,38.80
2022-08-22T15:24:44.595Z,39.06
2022-08-22T15:29:51.463Z,39.23
2022-08-22T15:34:55.283Z,38.79
2022-08-22T15:40:11.604Z,38.02
2022-08-22T15:45:21.438Z,38.17
2022-08-22T15:50:32.402Z,38.04
2022-08-22T15:55:38.061Z,38.19
2022-08-22T16:00:45.157Z,37.94
2022-08-22T16:05:55.379Z,37.75
2022-08-22T16:11:22.473Z,37.03
2022-08-22T16:16:54.178Z,37.19
2022-08-22T16:22:15.052Z,37.10
2022-08-22T16:27:22.401Z,36.74
2022-08-22T16:32:27.998Z,36.70
2022-08-22T16:37:55.558Z,36.30
2022-08-22T16:43:15.051Z,35.91
2022-08-22T16:48:35.459Z,35.87
2022-08-22T16:54:13.524Z,35.56
2022-08-22T16:59:38.276Z,35.49
2022-08-22T17:04:54.335Z,35.07
2022-08-22T17:10:20.426Z,34.94
2022-08-22T17:15:32.971Z,34.66
2022-08-22T17:20:50.793Z,34.21
2022-08-22T17:26:07.273Z,34.10
2022-08-22T17:31:16.970Z,33.88
2022-08-22T17:36:27.651Z,33.81
2022-08-22T17:41:40.022Z,33.34
2022-08-22T17:46:48.874Z,33.05
2022-08-22T17:51:58.569Z,32.85
2022-08-22T17:57:06.340Z,32.51
2022-08-22T18:02:16.364Z,32.37
2022-08-22T18:07:27.229Z,32.21
2022-08-22T18:12:34.495Z,31.99
2022-08-22T18:17:44.320Z,31.72
2022-08-22T18:22:54.125Z,31.50
2022-08-22T18:28:00.071Z,31.22
2022-08-22T18:33:09.283Z,30.99
2022-08-22T18:38:21.393Z,30.66
2022-08-22T18:43:37.075Z,30.63
2022-08-22T18:49:05.330Z,30.30
2022-08-22T18:54:36.594Z,30.05
2022-08-22T18:59:47.075Z,29.83
2022-08-22T19:05:28.687Z,29.60
2022-08-22T19:10:52.093Z,29.23
2022-08-22T19:16:07.315Z,29.26
2022-08-22T19:21:44.930Z,29.01
2022-08-22T19:26:51.327Z,28.81
2022-08-22T19:31:56.213Z,28.81
2022-08-22T19:37:32.049Z,28.87
2022-08-22T19:42:39.456Z,28.88
2022-08-22T19:47:43.943Z,28.94
2022-08-22T19:53:02.957Z,28.72
2022-08-22T19:58:16.541Z,28.67
2022-08-22T20:03:30.990Z,28.66
2022-08-22T20:08:47.964Z,28.53
2022-08-22T20:13:51.851Z,28.33
2022-08-22T20:19:07.009Z,28.42
2022-08-22T20:24:17.448Z,28.42
2022-08-22T20:29:21.912Z,28.26
2022-08-22T20:34:31.965Z,28.19
2022-08-22T20:39:43.756Z,28.05
2022-08-22T20:44:53.553Z,28.09
2022-08-22T20:50:03.145Z,28.04
2022-08-22T20:55:15.165Z,27.86
2022-08-22T21:00:21.064Z,27.90
2022-08-22T21:05:26.464Z,27.57
2022-08-22T21:10:50.675Z,27.55
2022-08-22T21:15:55.872Z,27.63
2022-08-22T21:21:08.113Z,27.56
2022-08-22T21:26:24.963Z,27.37
2022-08-22T21:31:31.238Z,27.43
2022-08-22T21:36:38.774Z,27.39
2022-08-22T21:41:49.225Z,27.21
2022-08-22T21:46:53.146Z,27.05
2022-08-22T21:51:57.319Z,27.10
2022-08-22T21:57:21.153Z,27.26
2022-08-22T22:02:37.156Z,27.18
2022-08-22T22:07:42.890Z,27.34
2022-08-22T22:12:51.234Z,27.43
2022-08-22T22:17:55.703Z,27.37
2022-08-22T22:22:59.620Z,27.32
2022-08-22T22:28:08.016Z,27.26
2022-08-22T22:33:11.891Z,26.78
2022-08-22T22:38:19.377Z,27.06
2022-08-22T22:43:26.858Z,27.03
2022-08-22T22:48:30.960Z,27.06
2022-08-22T22:53:40.140Z,27.18
2022-08-22T22:58:47.593Z,27.01
2022-08-22T23:03:54.589Z,26.91
2022-08-22T23:08:58.995Z,26.77
2022-08-22T23:14:03.963Z,26.52
2022-08-22T23:19:09.362Z,26.59
2022-08-22T23:24:13.034Z,26.65
2022-08-22T23:29:17.931Z,26.69
2022-08-22T23:34:23.628Z,26.75
2022-08-22T23:39:28.852Z,26.64
2022-08-22T23:44:35.470Z,26.57
2022-08-22T23:49:40.015Z,26.67
2022-08-22T23:54:43.547Z,26.71
2022-08-22T23:59:57.968Z,26.52
